sensor_id;sensor_type;location;lat;lon;timestamp;temperature;humidity
23669;DHT22;12011;47.422;15.018;2022-11-15T00:02:11;6.60;99.90
23669;DHT22;12011;47.422;15.018;2022-11-15T00:05:21;6.70;99.90
23669;DHT22;12011;47.422;15.018;2022-11-15T00:08:37;6.70;99.90
23669;DHT22;12011;47.422;15.018;2022-11-15T00:11:48;6.80;99.90
23669;DHT22;12011;47.422;15.018;2022-11-15T00:14:56;6.80;99.90
23669;DHT22;12011;47.422;15.018;2022-11-15T00:18:10;6.80;99.90
23669;DHT22;12011;47.422;15.018;2022-11-15T00:21:20;6.70;99.90
23669;DHT22;12011;47.422;15.018;2022-11-15T00:24:31;6.70;99.90
23669;DHT22;12011;47.422;15.018;2022-11-15T00:27:39;6.60;99.90
23669;DHT22;12011;47.422;15.018;2022-11-15T00:30:51;6.50;99.90
23669;DHT22;12011;47.422;15.018;2022-11-15T00:34:00;6.30;99.90
23669;DHT22;12011;47.422;15.018;2022-11-15T00:37:11;6.10;99.90
23669;DHT22;12011;47.422;15.018;2022-11-15T00:40:22;5.80;99.90
23669;DHT22;12011;47.422;15.018;2022-11-15T00:43:30;5.70;99.90
23669;DHT22;12011;47.422;15.018;2022-11-15T00:46:39;5.60;99.90
23669;DHT22;12011;47.422;15.018;2022-11-15T00:49:48;5.60;99.90
23669;DHT22;12011;47.422;15.018;2022-11-15T00:52:56;5.40;99.90
23669;DHT22;12011;47.422;15.018;2022-11-15T00:56:08;5.30;99.90
23669;DHT22;12011;47.422;15.018;2022-11-15T00:59:17;5.10;99.90
23669;DHT22;12011;47.422;15.018;2022-11-15T01:02:27;5.00;99.90
23669;DHT22;12011;47.422;15.018;2022-11-15T01:05:37;5.00;99.90
23669;DHT22;12011;47.422;15.018;2022-11-15T01:08:45;5.00;99.90
23669;DHT22;12011;47.422;15.018;2022-11-15T01:11:57;4.90;99.90
23669;DHT22;12011;47.422;15.018;2022-11-15T01:15:08;4.90;99.90
23669;DHT22;12011;47.422;15.018;2022-11-15T01:18:19;4.90;99.90
23669;DHT22;12011;47.422;15.018;2022-11-15T01:21:29;4.80;99.90
23669;DHT22;12011;47.422;15.018;2022-11-15T01:24:38;4.70;99.90
23669;DHT22;12011;47.422;15.018;2022-11-15T01:27:49;4.60;99.90
23669;DHT22;12011;47.422;15.018;2022-11-15T01:31:05;4.60;99.90
23669;DHT22;12011;47.422;15.018;2022-11-15T01:34:18;4.80;99.90
23669;DHT22;12011;47.422;15.018;2022-11-15T01:37:26;5.00;99.90
23669;DHT22;12011;47.422;15.018;2022-11-15T01:40:35;4.90;99.90
23669;DHT22;12011;47.422;15.018;2022-11-15T01:43:48;4.90;99.90
23669;DHT22;12011;47.422;15.018;2022-11-15T01:47:02;4.90;99.90
23669;DHT22;12011;47.422;15.018;2022-11-15T01:50:19;4.80;99.90
23669;DHT22;12011;47.422;15.018;2022-11-15T01:53:34;4.80;99.90
23669;DHT22;12011;47.422;15.018;2022-11-15T01:56:55;4.80;99.90
23669;DHT22;12011;47.422;15.018;2022-11-15T02:00:11;4.50;99.90
23669;DHT22;12011;47.422;15.018;2022-11-15T02:03:26;4.50;99.90
23669;DHT22;12011;47.422;15.018;2022-11-15T02:06:40;4.40;99.90
23669;DHT22;12011;47.422;15.018;2022-11-15T02:09:50;4.40;99.90
23669;DHT22;12011;47.422;15.018;2022-11-15T02:13:02;4.30;99.90
23669;DHT22;12011;47.422;15.018;2022-11-15T02:16:23;4.20;99.90
23669;DHT22;12011;47.422;15.018;2022-11-15T02:20:08;4.10;99.90
23669;DHT22;12011;47.422;15.018;2022-11-15T02:31:43;3.40;99.90
23669;DHT22;12011;47.422;15.018;2022-11-15T02:35:06;3.30;99.90
23669;DHT22;12011;47.422;15.018;2022-11-15T02:38:27;3.30;99.90
23669;DHT22;12011;47.422;15.018;2022-11-15T02:41:45;3.30;99.90
23669;DHT22;12011;47.422;15.018;2022-11-15T02:44:58;3.30;99.90
23669;DHT22;12011;47.422;15.018;2022-11-15T02:48:15;3.40;99.90
23669;DHT22;12011;47.422;15.018;2022-11-15T02:51:24;3.30;99.90
23669;DHT22;12011;47.422;15.018;2022-11-15T02:54:35;3.20;99.90
23669;DHT22;12011;47.422;15.018;2022-11-15T02:57:52;3.10;99.90
23669;DHT22;12011;47.422;15.018;2022-11-15T03:01:18;3.10;99.90
23669;DHT22;12011;47.422;15.018;2022-11-15T03:04:44;3.10;99.90
23669;DHT22;12011;47.422;15.018;2022-11-15T03:08:05;3.10;99.90
23669;DHT22;12011;47.422;15.018;2022-11-15T03:11:18;3.00;99.90
23669;DHT22;12011;47.422;15.018;2022-11-15T03:14:32;3.00;99.90
23669;DHT22;12011;47.422;15.018;2022-11-15T03:17:49;3.00;99.90
23669;DHT22;12011;47.422;15.018;2022-11-15T03:21:10;2.90;99.90
23669;DHT22;12011;47.422;15.018;2022-11-15T03:24:21;2.90;99.90
23669;DHT22;12011;47.422;15.018;2022-11-15T03:27:38;2.70;99.90
23669;DHT22;12011;47.422;15.018;2022-11-15T03:30:55;2.70;99.90
23669;DHT22;12011;47.422;15.018;2022-11-15T03:34:09;2.80;99.90
23669;DHT22;12011;47.422;15.018;2022-11-15T03:37:30;2.80;99.90
23669;DHT22;12011;47.422;15.018;2022-11-15T03:40:45;2.60;99.90
23669;DHT22;12011;47.422;15.018;2022-11-15T03:44:04;2.20;99.90
23669;DHT22;12011;47.422;15.018;2022-11-15T03:47:26;2.10;99.90
23669;DHT22;12011;47.422;15.018;2022-11-15T03:50:39;2.30;99.90
23669;DHT22;12011;47.422;15.018;2022-11-15T03:53:51;2.40;99.90
23669;DHT22;12011;47.422;15.018;2022-11-15T03:57:00;2.30;99.90
23669;DHT22;12011;47.422;15.018;2022-11-15T04:00:10;2.30;99.90
23669;DHT22;12011;47.422;15.018;2022-11-15T04:03:21;2.10;99.90
23669;DHT22;12011;47.422;15.018;2022-11-15T04:06:30;2.10;99.90
23669;DHT22;12011;47.422;15.018;2022-11-15T04:09:41;2.10;99.90
23669;DHT22;12011;47.422;15.018;2022-11-15T04:13:03;2.00;99.90
23669;DHT22;12011;47.422;15.018;2022-11-15T04:16:11;1.90;99.90
23669;DHT22;12011;47.422;15.018;2022-11-15T04:19:19;2.00;99.90
23669;DHT22;12011;47.422;15.018;2022-11-15T04:22:40;2.00;99.90
23669;DHT22;12011;47.422;15.018;2022-11-15T04:26:09;2.00;99.90
23669;DHT22;12011;47.422;15.018;2022-11-15T04:29:18;1.90;99.90
23669;DHT22;12011;47.422;15.018;2022-11-15T04:32:43;1.90;99.90
23669;DHT22;12011;47.422;15.018;2022-11-15T04:35:51;1.80;99.90
23669;DHT22;12011;47.422;15.018;2022-11-15T04:39:12;1.70;99.90
23669;DHT22;12011;47.422;15.018;2022-11-15T04:42:25;1.80;99.90
23669;DHT22;12011;47.422;15.018;2022-11-15T04:45:36;1.80;99.90
23669;DHT22;12011;47.422;15.018;2022-11-15T04:48:44;1.80;99.90
23669;DHT22;12011;47.422;15.018;2022-11-15T04:51:52;1.80;99.90
23669;DHT22;12011;47.422;15.018;2022-11-15T04:55:04;1.80;99.90
23669;DHT22;12011;47.422;15.018;2022-11-15T04:58:15;1.70;99.90
23669;DHT22;12011;47.422;15.018;2022-11-15T05:01:24;1.60;99.90
23669;DHT22;12011;47.422;15.018;2022-11-15T05:04:33;1.50;99.90
23669;DHT22;12011;47.422;15.018;2022-11-15T05:07:38;1.60;99.90
23669;DHT22;12011;47.422;15.018;2022-11-15T05:10:49;1.60;99.90
23669;DHT22;12011;47.422;15.018;2022-11-15T05:14:01;1.60;99.90
23669;DHT22;12011;47.422;15.018;2022-11-15T05:17:11;1.50;99.90
23669;DHT22;12011;47.422;15.018;2022-11-15T05:20:19;1.40;99.90
23669;DHT22;12011;47.422;15.018;2022-11-15T05:23:29;1.20;99.90
23669;DHT22;12011;47.422;15.018;2022-11-15T05:26:38;1.30;99.90
23669;DHT22;12011;47.422;15.018;2022-11-15T05:29:49;1.20;99.90
23669;DHT22;12011;47.422;15.018;2022-11-15T05:32:57;1.20;99.90
23669;DHT22;12011;47.422;15.018;2022-11-15T05:36:12;1.20;99.90
23669;DHT22;12011;47.422;15.018;2022-11-15T05:39:22;1.20;99.90
23669;DHT22;12011;47.422;15.018;2022-11-15T05:42:31;1.30;99.90
23669;DHT22;12011;47.422;15.018;2022-11-15T05:45:42;1.30;99.90
23669;DHT22;12011;47.422;15.018;2022-11-15T05:48:53;1.50;99.90
23669;DHT22;12011;47.422;15.018;2022-11-15T05:52:05;1.90;99.90
23669;DHT22;12011;47.422;15.018;2022-11-15T05:55:15;2.00;99.90
23669;DHT22;12011;47.422;15.018;2022-11-15T05:58:24;2.10;99.90
23669;DHT22;12011;47.422;15.018;2022-11-15T06:01:35;2.20;99.90
23669;DHT22;12011;47.422;15.018;2022-11-15T06:04:49;2.30;99.90
23669;DHT22;12011;47.422;15.018;2022-11-15T06:07:58;2.40;99.90
23669;DHT22;12011;47.422;15.018;2022-11-15T06:11:10;2.40;99.90
23669;DHT22;12011;47.422;15.018;2022-11-15T06:14:18;2.50;99.90
23669;DHT22;12011;47.422;15.018;2022-11-15T06:17:32;2.50;99.90
23669;DHT22;12011;47.422;15.018;2022-11-15T06:20:41;2.50;99.90
23669;DHT22;12011;47.422;15.018;2022-11-15T06:23:49;2.60;99.90
23669;DHT22;12011;47.422;15.018;2022-11-15T06:26:58;2.80;99.90
23669;DHT22;12011;47.422;15.018;2022-11-15T06:30:08;2.90;99.90
23669;DHT22;12011;47.422;15.018;2022-11-15T06:33:20;3.10;99.90
23669;DHT22;12011;47.422;15.018;2022-11-15T06:36:31;3.20;99.90
23669;DHT22;12011;47.422;15.018;2022-11-15T06:39:43;3.30;99.90
23669;DHT22;12011;47.422;15.018;2022-11-15T06:42:59;3.40;99.90
23669;DHT22;12011;47.422;15.018;2022-11-15T06:46:10;3.60;99.90
23669;DHT22;12011;47.422;15.018;2022-11-15T06:49:20;3.60;99.90
23669;DHT22;12011;47.422;15.018;2022-11-15T06:52:29;3.60;99.90
23669;DHT22;12011;47.422;15.018;2022-11-15T06:55:39;3.60;99.90
23669;DHT22;12011;47.422;15.018;2022-11-15T06:58:50;3.70;99.90
23669;DHT22;12011;47.422;15.018;2022-11-15T07:01:59;3.70;99.90
23669;DHT22;12011;47.422;15.018;2022-11-15T07:05:10;3.70;99.90
23669;DHT22;12011;47.422;15.018;2022-11-15T07:08:19;3.80;99.90
23669;DHT22;12011;47.422;15.018;2022-11-15T07:11:30;3.90;99.90
23669;DHT22;12011;47.422;15.018;2022-11-15T07:14:38;4.00;99.90
23669;DHT22;12011;47.422;15.018;2022-11-15T07:17:51;4.20;99.90
23669;DHT22;12011;47.422;15.018;2022-11-15T07:21:04;4.30;99.90
23669;DHT22;12011;47.422;15.018;2022-11-15T07:24:15;4.50;99.90
23669;DHT22;12011;47.422;15.018;2022-11-15T07:27:24;4.60;99.90
23669;DHT22;12011;47.422;15.018;2022-11-15T07:30:44;4.60;99.90
23669;DHT22;12011;47.422;15.018;2022-11-15T07:33:52;4.70;99.90
23669;DHT22;12011;47.422;15.018;2022-11-15T07:37:12;4.70;99.90
23669;DHT22;12011;47.422;15.018;2022-11-15T07:40:24;4.70;99.90
23669;DHT22;12011;47.422;15.018;2022-11-15T07:43:33;4.70;99.90
23669;DHT22;12011;47.422;15.018;2022-11-15T07:46:42;4.90;99.90
23669;DHT22;12011;47.422;15.018;2022-11-15T07:49:51;4.90;99.90
23669;DHT22;12011;47.422;15.018;2022-11-15T07:53:05;5.00;99.90
23669;DHT22;12011;47.422;15.018;2022-11-15T07:56:14;5.10;99.90
23669;DHT22;12011;47.422;15.018;2022-11-15T07:59:26;5.20;99.90
23669;DHT22;12011;47.422;15.018;2022-11-15T08:02:40;5.20;99.90
23669;DHT22;12011;47.422;15.018;2022-11-15T08:05:51;5.30;99.90
23669;DHT22;12011;47.422;15.018;2022-11-15T08:09:03;5.30;99.90
23669;DHT22;12011;47.422;15.018;2022-11-15T08:12:11;5.50;99.90
23669;DHT22;12011;47.422;15.018;2022-11-15T08:15:21;5.50;99.90
23669;DHT22;12011;47.422;15.018;2022-11-15T08:18:31;5.70;99.90
23669;DHT22;12011;47.422;15.018;2022-11-15T08:21:42;5.90;99.90
23669;DHT22;12011;47.422;15.018;2022-11-15T08:24:56;6.00;99.90
23669;DHT22;12011;47.422;15.018;2022-11-15T08:28:11;6.10;99.90
23669;DHT22;12011;47.422;15.018;2022-11-15T08:31:22;6.30;99.90
23669;DHT22;12011;47.422;15.018;2022-11-15T08:34:31;6.60;99.90
23669;DHT22;12011;47.422;15.018;2022-11-15T08:37:39;6.80;99.90
23669;DHT22;12011;47.422;15.018;2022-11-15T08:41:00;7.00;99.90
23669;DHT22;12011;47.422;15.018;2022-11-15T08:44:10;7.10;99.90
23669;DHT22;12011;47.422;15.018;2022-11-15T08:47:20;7.20;99.90
23669;DHT22;12011;47.422;15.018;2022-11-15T08:50:32;7.30;99.90
23669;DHT22;12011;47.422;15.018;2022-11-15T08:53:44;7.30;99.90
23669;DHT22;12011;47.422;15.018;2022-11-15T08:56:55;7.40;99.90
23669;DHT22;12011;47.422;15.018;2022-11-15T09:00:06;7.50;99.90
23669;DHT22;12011;47.422;15.018;2022-11-15T09:03:18;7.50;99.90
23669;DHT22;12011;47.422;15.018;2022-11-15T09:06:26;7.60;99.90
23669;DHT22;12011;47.422;15.018;2022-11-15T09:09:35;7.70;99.90
23669;DHT22;12011;47.422;15.018;2022-11-15T09:12:46;7.80;99.90
23669;DHT22;12011;47.422;15.018;2022-11-15T09:15:57;7.80;99.90
23669;DHT22;12011;47.422;15.018;2022-11-15T09:19:07;7.80;99.90
23669;DHT22;12011;47.422;15.018;2022-11-15T09:22:15;7.80;99.90
23669;DHT22;12011;47.422;15.018;2022-11-15T09:25:24;7.80;99.90
23669;DHT22;12011;47.422;15.018;2022-11-15T09:28:36;7.90;99.90
23669;DHT22;12011;47.422;15.018;2022-11-15T09:31:46;8.00;99.90
23669;DHT22;12011;47.422;15.018;2022-11-15T09:34:55;8.10;99.90
23669;DHT22;12011;47.422;15.018;2022-11-15T09:38:14;8.20;99.90
23669;DHT22;12011;47.422;15.018;2022-11-15T09:41:41;8.40;99.90
23669;DHT22;12011;47.422;15.018;2022-11-15T09:45:16;8.50;99.90
23669;DHT22;12011;47.422;15.018;2022-11-15T09:48:51;8.70;99.90
23669;DHT22;12011;47.422;15.018;2022-11-15T09:51:53;8.90;99.90
23669;DHT22;12011;47.422;15.018;2022-11-15T09:54:50;9.20;99.90
23669;DHT22;12011;47.422;15.018;2022-11-15T09:57:47;9.50;99.90
23669;DHT22;12011;47.422;15.018;2022-11-15T10:00:48;9.70;99.90
23669;DHT22;12011;47.422;15.018;2022-11-15T10:03:41;9.80;99.90
23669;DHT22;12011;47.422;15.018;2022-11-15T10:06:43;9.70;99.90
23669;DHT22;12011;47.422;15.018;2022-11-15T10:09:45;9.70;99.90
23669;DHT22;12011;47.422;15.018;2022-11-15T10:12:50;9.70;99.90
23669;DHT22;12011;47.422;15.018;2022-11-15T10:15:47;10.00;99.90
23669;DHT22;12011;47.422;15.018;2022-11-15T10:18:52;10.20;99.90
23669;DHT22;12011;47.422;15.018;2022-11-15T10:22:00;10.60;99.90
23669;DHT22;12011;47.422;15.018;2022-11-15T10:25:16;10.70;91.90
23669;DHT22;12011;47.422;15.018;2022-11-15T10:28:16;11.20;93.10
23669;DHT22;12011;47.422;15.018;2022-11-15T10:31:22;11.40;90.80
23669;DHT22;12011;47.422;15.018;2022-11-15T10:34:16;11.50;89.90
23669;DHT22;12011;47.422;15.018;2022-11-15T10:37:07;12.00;86.90
23669;DHT22;12011;47.422;15.018;2022-11-15T10:40:05;13.30;76.00
23669;DHT22;12011;47.422;15.018;2022-11-15T10:43:06;13.10;68.40
23669;DHT22;12011;47.422;15.018;2022-11-15T10:46:22;12.60;69.80
23669;DHT22;12011;47.422;15.018;2022-11-15T10:49:15;12.50;72.30
23669;DHT22;12011;47.422;15.018;2022-11-15T10:52:16;12.40;72.10
23669;DHT22;12011;47.422;15.018;2022-11-15T10:55:23;12.70;71.90
23669;DHT22;12011;47.422;15.018;2022-11-15T10:58:31;13.60;65.70
23669;DHT22;12011;47.422;15.018;2022-11-15T11:01:27;14.00;61.10
23669;DHT22;12011;47.422;15.018;2022-11-15T11:04:18;15.20;61.00
23669;DHT22;12011;47.422;15.018;2022-11-15T11:07:21;16.10;54.80
23669;DHT22;12011;47.422;15.018;2022-11-15T11:10:20;16.80;51.30
23669;DHT22;12011;47.422;15.018;2022-11-15T11:13:15;17.30;49.40
23669;DHT22;12011;47.422;15.018;2022-11-15T11:19:48;17.60;47.10
23669;DHT22;12011;47.422;15.018;2022-11-15T11:23:04;18.00;47.20
23669;DHT22;12011;47.422;15.018;2022-11-15T11:26:23;18.30;44.00
23669;DHT22;12011;47.422;15.018;2022-11-15T11:29:37;18.80;43.00
23669;DHT22;12011;47.422;15.018;2022-11-15T11:33:13;19.20;41.70
23669;DHT22;12011;47.422;15.018;2022-11-15T11:36:16;19.40;43.40
23669;DHT22;12011;47.422;15.018;2022-11-15T11:39:24;19.50;41.90
23669;DHT22;12011;47.422;15.018;2022-11-15T11:42:30;18.80;42.50
23669;DHT22;12011;47.422;15.018;2022-11-15T11:45:53;18.60;42.10
23669;DHT22;12011;47.422;15.018;2022-11-15T11:49:01;19.30;42.60
23669;DHT22;12011;47.422;15.018;2022-11-15T11:52:01;19.70;40.30
23669;DHT22;12011;47.422;15.018;2022-11-15T11:55:03;19.50;39.50
23669;DHT22;12011;47.422;15.018;2022-11-15T11:58:09;19.20;41.00
23669;DHT22;12011;47.422;15.018;2022-11-15T12:01:12;19.00;41.60
23669;DHT22;12011;47.422;15.018;2022-11-15T12:04:13;19.50;40.90
23669;DHT22;12011;47.422;15.018;2022-11-15T12:07:13;19.00;39.80
23669;DHT22;12011;47.422;15.018;2022-11-15T12:10:19;19.20;41.00
23669;DHT22;12011;47.422;15.018;2022-11-15T12:13:18;18.90;41.10
23669;DHT22;12011;47.422;15.018;2022-11-15T12:16:16;18.70;41.20
23669;DHT22;12011;47.422;15.018;2022-11-15T12:19:13;18.40;41.90
23669;DHT22;12011;47.422;15.018;2022-11-15T12:22:11;18.80;44.30
23669;DHT22;12011;47.422;15.018;2022-11-15T12:25:14;18.90;42.30
23669;DHT22;12011;47.422;15.018;2022-11-15T12:28:15;19.10;41.70
23669;DHT22;12011;47.422;15.018;2022-11-15T12:31:15;18.20;40.50
23669;DHT22;12011;47.422;15.018;2022-11-15T12:34:40;18.70;42.50
23669;DHT22;12011;47.422;15.018;2022-11-15T12:37:48;18.90;41.70
23669;DHT22;12011;47.422;15.018;2022-11-15T12:41:14;18.30;42.20
23669;DHT22;12011;47.422;15.018;2022-11-15T12:44:12;17.60;43.70
23669;DHT22;12011;47.422;15.018;2022-11-15T12:47:21;16.20;45.60
23669;DHT22;12011;47.422;15.018;2022-11-15T12:50:15;15.30;48.20
23669;DHT22;12011;47.422;15.018;2022-11-15T12:53:27;15.00;51.40
23669;DHT22;12011;47.422;15.018;2022-11-15T12:56:23;14.70;51.50
23669;DHT22;12011;47.422;15.018;2022-11-15T12:59:47;14.60;51.70
23669;DHT22;12011;47.422;15.018;2022-11-15T13:02:40;14.50;52.60
23669;DHT22;12011;47.422;15.018;2022-11-15T13:09:53;13.50;53.30
23669;DHT22;12011;47.422;15.018;2022-11-15T13:12:55;13.20;57.10
23669;DHT22;12011;47.422;15.018;2022-11-15T13:15:57;12.80;58.60
23669;DHT22;12011;47.422;15.018;2022-11-15T13:18:54;12.70;62.00
23669;DHT22;12011;47.422;15.018;2022-11-15T13:21:49;12.40;64.10
23669;DHT22;12011;47.422;15.018;2022-11-15T13:24:54;12.30;62.00
23669;DHT22;12011;47.422;15.018;2022-11-15T13:27:44;12.20;67.30
23669;DHT22;12011;47.422;15.018;2022-11-15T13:30:37;12.20;64.20
23669;DHT22;12011;47.422;15.018;2022-11-15T13:33:31;12.10;65.00
23669;DHT22;12011;47.422;15.018;2022-11-15T13:36:25;12.00;64.70
23669;DHT22;12011;47.422;15.018;2022-11-15T13:39:27;12.00;65.10
23669;DHT22;12011;47.422;15.018;2022-11-15T13:42:21;11.90;66.00
23669;DHT22;12011;47.422;15.018;2022-11-15T13:45:14;11.80;72.60
23669;DHT22;12011;47.422;15.018;2022-11-15T13:48:08;11.70;66.40
23669;DHT22;12011;47.422;15.018;2022-11-15T13:50:58;11.70;67.30
23669;DHT22;12011;47.422;15.018;2022-11-15T13:53:52;11.80;65.50
23669;DHT22;12011;47.422;15.018;2022-11-15T13:56:51;11.80;69.00
23669;DHT22;12011;47.422;15.018;2022-11-15T13:59:50;11.80;67.90
23669;DHT22;12011;47.422;15.018;2022-11-15T14:02:41;11.90;69.50
23669;DHT22;12011;47.422;15.018;2022-11-15T14:05:35;11.80;74.00
23669;DHT22;12011;47.422;15.018;2022-11-15T14:08:26;11.70;70.50
23669;DHT22;12011;47.422;15.018;2022-11-15T14:11:18;11.70;68.30
23669;DHT22;12011;47.422;15.018;2022-11-15T14:14:14;11.80;72.50
23669;DHT22;12011;47.422;15.018;2022-11-15T14:17:20;11.70;67.20
23669;DHT22;12011;47.422;15.018;2022-11-15T14:20:28;11.70;67.90
23669;DHT22;12011;47.422;15.018;2022-11-15T14:23:24;11.60;70.70
23669;DHT22;12011;47.422;15.018;2022-11-15T14:26:30;11.60;74.90
23669;DHT22;12011;47.422;15.018;2022-11-15T14:29:26;11.40;80.20
23669;DHT22;12011;47.422;15.018;2022-11-15T14:32:23;11.30;83.10
23669;DHT22;12011;47.422;15.018;2022-11-15T14:35:16;11.10;82.30
23669;DHT22;12011;47.422;15.018;2022-11-15T14:38:10;10.90;88.00
23669;DHT22;12011;47.422;15.018;2022-11-15T14:41:00;10.80;90.40
23669;DHT22;12011;47.422;15.018;2022-11-15T14:43:50;10.60;93.50
23669;DHT22;12011;47.422;15.018;2022-11-15T14:46:41;10.50;97.10
23669;DHT22;12011;47.422;15.018;2022-11-15T14:49:33;10.40;95.90
23669;DHT22;12011;47.422;15.018;2022-11-15T14:52:25;10.50;93.40
23669;DHT22;12011;47.422;15.018;2022-11-15T14:55:24;10.50;89.60
23669;DHT22;12011;47.422;15.018;2022-11-15T14:58:14;10.50;92.80
23669;DHT22;12011;47.422;15.018;2022-11-15T15:01:13;10.40;93.20
23669;DHT22;12011;47.422;15.018;2022-11-15T15:04:05;10.30;93.50
23669;DHT22;12011;47.422;15.018;2022-11-15T15:06:58;10.10;94.30
23669;DHT22;12011;47.422;15.018;2022-11-15T15:09:47;9.90;96.30
23669;DHT22;12011;47.422;15.018;2022-11-15T15:12:37;9.70;97.60
23669;DHT22;12011;47.422;15.018;2022-11-15T15:15:33;9.40;98.10
23669;DHT22;12011;47.422;15.018;2022-11-15T15:18:24;9.30;99.90
23669;DHT22;12011;47.422;15.018;2022-11-15T15:21:20;9.00;99.90
23669;DHT22;12011;47.422;15.018;2022-11-15T15:24:14;8.60;99.90
23669;DHT22;12011;47.422;15.018;2022-11-15T15:27:04;8.50;99.90
23669;DHT22;12011;47.422;15.018;2022-11-15T15:29:54;8.50;99.90
23669;DHT22;12011;47.422;15.018;2022-11-15T15:32:44;8.40;99.90
23669;DHT22;12011;47.422;15.018;2022-11-15T15:35:34;8.10;99.90
23669;DHT22;12011;47.422;15.018;2022-11-15T15:38:25;7.60;99.90
23669;DHT22;12011;47.422;15.018;2022-11-15T15:41:17;7.10;99.90
23669;DHT22;12011;47.422;15.018;2022-11-15T15:44:07;7.30;99.90
23669;DHT22;12011;47.422;15.018;2022-11-15T15:46:57;7.40;99.90
23669;DHT22;12011;47.422;15.018;2022-11-15T15:49:48;7.30;99.90
23669;DHT22;12011;47.422;15.018;2022-11-15T15:52:38;7.00;99.90
23669;DHT22;12011;47.422;15.018;2022-11-15T15:55:30;6.90;99.90
23669;DHT22;12011;47.422;15.018;2022-11-15T15:58:23;7.00;99.90
23669;DHT22;12011;47.422;15.018;2022-11-15T16:01:13;6.80;99.90
23669;DHT22;12011;47.422;15.018;2022-11-15T16:04:03;6.70;99.90
23669;DHT22;12011;47.422;15.018;2022-11-15T16:06:58;6.60;99.90
23669;DHT22;12011;47.422;15.018;2022-11-15T16:09:53;6.60;99.90
23669;DHT22;12011;47.422;15.018;2022-11-15T16:12:51;6.50;99.90
23669;DHT22;12011;47.422;15.018;2022-11-15T16:15:49;6.40;99.90
23669;DHT22;12011;47.422;15.018;2022-11-15T16:18:41;6.40;99.90
23669;DHT22;12011;47.422;15.018;2022-11-15T16:21:31;6.30;99.90
23669;DHT22;12011;47.422;15.018;2022-11-15T16:24:21;6.30;99.90
23669;DHT22;12011;47.422;15.018;2022-11-15T16:27:14;6.00;99.90
23669;DHT22;12011;47.422;15.018;2022-11-15T16:30:13;6.10;99.90
23669;DHT22;12011;47.422;15.018;2022-11-15T16:33:07;6.00;99.90
23669;DHT22;12011;47.422;15.018;2022-11-15T16:35:57;5.80;99.90
23669;DHT22;12011;47.422;15.018;2022-11-15T16:38:47;5.90;99.90
23669;DHT22;12011;47.422;15.018;2022-11-15T16:41:37;5.90;99.90
23669;DHT22;12011;47.422;15.018;2022-11-15T16:44:28;5.90;99.90
23669;DHT22;12011;47.422;15.018;2022-11-15T16:47:19;5.70;99.90
23669;DHT22;12011;47.422;15.018;2022-11-15T16:50:19;5.70;99.90
23669;DHT22;12011;47.422;15.018;2022-11-15T16:53:11;5.30;99.90
23669;DHT22;12011;47.422;15.018;2022-11-15T16:56:01;5.30;99.90
23669;DHT22;12011;47.422;15.018;2022-11-15T16:58:52;4.70;99.90
23669;DHT22;12011;47.422;15.018;2022-11-15T17:01:44;4.70;99.90
23669;DHT22;12011;47.422;15.018;2022-11-15T17:04:38;4.70;99.90
23669;DHT22;12011;47.422;15.018;2022-11-15T17:07:31;4.70;99.90
23669;DHT22;12011;47.422;15.018;2022-11-15T17:10:22;4.60;99.90
23669;DHT22;12011;47.422;15.018;2022-11-15T17:13:14;4.60;99.90
23669;DHT22;12011;47.422;15.018;2022-11-15T17:16:05;4.60;99.90
23669;DHT22;12011;47.422;15.018;2022-11-15T17:18:57;4.50;99.90
23669;DHT22;12011;47.422;15.018;2022-11-15T17:21:47;4.20;99.90
23669;DHT22;12011;47.422;15.018;2022-11-15T17:24:40;4.20;99.90
23669;DHT22;12011;47.422;15.018;2022-11-15T17:27:30;4.20;99.90
23669;DHT22;12011;47.422;15.018;2022-11-15T17:30:21;4.20;99.90
23669;DHT22;12011;47.422;15.018;2022-11-15T17:33:11;4.00;99.90
23669;DHT22;12011;47.422;15.018;2022-11-15T17:36:04;4.00;99.90
23669;DHT22;12011;47.422;15.018;2022-11-15T17:38:55;3.90;99.90
23669;DHT22;12011;47.422;15.018;2022-11-15T17:41:48;3.90;99.90
23669;DHT22;12011;47.422;15.018;2022-11-15T17:44:38;3.90;99.90
23669;DHT22;12011;47.422;15.018;2022-11-15T17:47:28;3.80;99.90
23669;DHT22;12011;47.422;15.018;2022-11-15T17:50:18;3.60;99.90
23669;DHT22;12011;47.422;15.018;2022-11-15T17:53:08;3.40;99.90
23669;DHT22;12011;47.422;15.018;2022-11-15T17:56:00;3.50;99.90
23669;DHT22;12011;47.422;15.018;2022-11-15T17:58:56;3.50;99.90
23669;DHT22;12011;47.422;15.018;2022-11-15T18:01:49;3.40;99.90
23669;DHT22;12011;47.422;15.018;2022-11-15T18:04:40;3.50;99.90
23669;DHT22;12011;47.422;15.018;2022-11-15T18:07:30;3.50;99.90
23669;DHT22;12011;47.422;15.018;2022-11-15T18:10:20;3.40;99.90
23669;DHT22;12011;47.422;15.018;2022-11-15T18:13:11;3.40;99.90
23669;DHT22;12011;47.422;15.018;2022-11-15T18:16:04;3.40;99.90
23669;DHT22;12011;47.422;15.018;2022-11-15T18:18:58;3.40;99.90
23669;DHT22;12011;47.422;15.018;2022-11-15T18:21:48;3.20;99.90
23669;DHT22;12011;47.422;15.018;2022-11-15T18:24:49;3.20;99.90
23669;DHT22;12011;47.422;15.018;2022-11-15T18:27:41;3.20;99.90
23669;DHT22;12011;47.422;15.018;2022-11-15T18:30:31;3.20;99.90
23669;DHT22;12011;47.422;15.018;2022-11-15T18:33:24;3.10;99.90
23669;DHT22;12011;47.422;15.018;2022-11-15T18:36:19;3.00;99.90
23669;DHT22;12011;47.422;15.018;2022-11-15T18:39:12;3.00;99.90
23669;DHT22;12011;47.422;15.018;2022-11-15T18:42:02;2.90;99.90
23669;DHT22;12011;47.422;15.018;2022-11-15T18:44:52;2.60;99.90
23669;DHT22;12011;47.422;15.018;2022-11-15T18:47:42;2.70;99.90
23669;DHT22;12011;47.422;15.018;2022-11-15T18:50:35;2.60;99.90
23669;DHT22;12011;47.422;15.018;2022-11-15T18:53:25;2.60;99.90
23669;DHT22;12011;47.422;15.018;2022-11-15T18:56:16;2.70;99.90
23669;DHT22;12011;47.422;15.018;2022-11-15T18:59:07;2.60;99.90
23669;DHT22;12011;47.422;15.018;2022-11-15T19:05:28;2.80;99.90
23669;DHT22;12011;47.422;15.018;2022-11-15T19:08:33;2.50;99.90
23669;DHT22;12011;47.422;15.018;2022-11-15T19:11:49;2.40;99.90
23669;DHT22;12011;47.422;15.018;2022-11-15T19:14:48;2.10;99.90
23669;DHT22;12011;47.422;15.018;2022-11-15T19:17:50;2.20;99.90
23669;DHT22;12011;47.422;15.018;2022-11-15T19:20:50;2.30;99.90
23669;DHT22;12011;47.422;15.018;2022-11-15T19:23:49;2.30;99.90
23669;DHT22;12011;47.422;15.018;2022-11-15T19:26:45;2.20;99.90
23669;DHT22;12011;47.422;15.018;2022-11-15T19:29:42;2.20;99.90
23669;DHT22;12011;47.422;15.018;2022-11-15T19:32:55;2.10;99.90
23669;DHT22;12011;47.422;15.018;2022-11-15T19:36:02;1.90;99.90
23669;DHT22;12011;47.422;15.018;2022-11-15T19:39:22;1.90;99.90
23669;DHT22;12011;47.422;15.018;2022-11-15T19:42:24;1.80;99.90